sensor_id;sensor_type;location;lat;lon;timestamp;P1;durP1;ratioP1;P2;durP2;ratioP2
71667;SDS011;59504;54.806;9.640;2023-01-16T00:01:28;14.70;;;1.73;;
71667;SDS011;59504;54.806;9.640;2023-01-16T00:03:49;14.55;;;2.03;;
71667;SDS011;59504;54.806;9.640;2023-01-16T00:06:09;21.48;;;2.42;;
71667;SDS011;59504;54.806;9.640;2023-01-16T00:08:30;18.67;;;1.88;;
71667;SDS011;59504;54.806;9.640;2023-01-16T00:10:51;19.75;;;2.25;;
71667;SDS011;59504;54.806;9.640;2023-01-16T00:13:12;17.45;;;1.70;;
71667;SDS011;59504;54.806;9.640;2023-01-16T00:15:33;9.07;;;1.88;;
71667;SDS011;59504;54.806;9.640;2023-01-16T00:17:54;12.13;;;1.83;;
71667;SDS011;59504;54.806;9.640;2023-01-16T00:20:15;10.45;;;1.63;;
71667;SDS011;59504;54.806;9.640;2023-01-16T00:22:36;10.73;;;1.67;;
71667;SDS011;59504;54.806;9.640;2023-01-16T00:24:56;18.65;;;2.22;;
71667;SDS011;59504;54.806;9.640;2023-01-16T00:27:17;16.70;;;1.83;;
71667;SDS011;59504;54.806;9.640;2023-01-16T00:29:38;10.73;;;1.52;;
71667;SDS011;59504;54.806;9.640;2023-01-16T00:31:58;21.08;;;2.63;;
71667;SDS011;59504;54.806;9.640;2023-01-16T00:34:19;21.27;;;2.28;;
71667;SDS011;59504;54.806;9.640;2023-01-16T00:36:39;19.42;;;2.47;;
71667;SDS011;59504;54.806;9.640;2023-01-16T00:39:00;16.02;;;2.20;;
71667;SDS011;59504;54.806;9.640;2023-01-16T00:41:21;26.13;;;2.58;;
71667;SDS011;59504;54.806;9.640;2023-01-16T00:43:41;25.40;;;2.17;;
71667;SDS011;59504;54.806;9.640;2023-01-16T00:46:02;15.80;;;2.38;;
71667;SDS011;59504;54.806;9.640;2023-01-16T00:48:23;26.48;;;2.42;;
71667;SDS011;59504;54.806;9.640;2023-01-16T00:50:44;30.00;;;2.95;;
71667;SDS011;59504;54.806;9.640;2023-01-16T00:53:04;16.50;;;2.90;;
71667;SDS011;59504;54.806;9.640;2023-01-16T00:55:25;29.25;;;3.15;;
71667;SDS011;59504;54.806;9.640;2023-01-16T00:57:46;34.17;;;3.22;;
71667;SDS011;59504;54.806;9.640;2023-01-16T01:00:07;19.08;;;2.78;;
71667;SDS011;59504;54.806;9.640;2023-01-16T01:02:28;29.55;;;3.30;;
71667;SDS011;59504;54.806;9.640;2023-01-16T01:04:49;20.23;;;3.20;;
71667;SDS011;59504;54.806;9.640;2023-01-16T01:07:09;29.80;;;3.75;;
71667;SDS011;59504;54.806;9.640;2023-01-16T01:09:30;35.65;;;3.75;;
71667;SDS011;59504;54.806;9.640;2023-01-16T01:11:51;22.25;;;3.03;;
71667;SDS011;59504;54.806;9.640;2023-01-16T01:14:11;26.08;;;3.20;;
71667;SDS011;59504;54.806;9.640;2023-01-16T01:16:32;23.20;;;2.80;;
71667;SDS011;59504;54.806;9.640;2023-01-16T01:18:52;24.48;;;3.58;;
71667;SDS011;59504;54.806;9.640;2023-01-16T01:21:12;13.85;;;2.65;;
71667;SDS011;59504;54.806;9.640;2023-01-16T01:23:31;18.10;;;3.00;;
71667;SDS011;59504;54.806;9.640;2023-01-16T01:25:50;22.48;;;2.85;;
71667;SDS011;59504;54.806;9.640;2023-01-16T01:28:11;19.58;;;2.42;;
71667;SDS011;59504;54.806;9.640;2023-01-16T01:30:30;13.27;;;3.00;;
71667;SDS011;59504;54.806;9.640;2023-01-16T01:32:49;22.58;;;2.95;;
71667;SDS011;59504;54.806;9.640;2023-01-16T01:35:08;16.40;;;2.58;;
71667;SDS011;59504;54.806;9.640;2023-01-16T01:37:28;18.17;;;3.03;;
71667;SDS011;59504;54.806;9.640;2023-01-16T01:39:47;11.13;;;1.90;;
71667;SDS011;59504;54.806;9.640;2023-01-16T01:42:08;16.50;;;2.00;;
71667;SDS011;59504;54.806;9.640;2023-01-16T01:47:15;8.57;;;1.10;;
71667;SDS011;59504;54.806;9.640;2023-01-16T01:49:37;7.93;;;1.27;;
71667;SDS011;59504;54.806;9.640;2023-01-16T01:51:58;7.50;;;1.15;;
71667;SDS011;59504;54.806;9.640;2023-01-16T01:54:21;6.53;;;1.10;;
71667;SDS011;59504;54.806;9.640;2023-01-16T01:56:45;10.25;;;1.20;;
71667;SDS011;59504;54.806;9.640;2023-01-16T01:59:12;5.85;;;1.00;;
71667;SDS011;59504;54.806;9.640;2023-01-16T02:01:39;7.63;;;1.08;;
71667;SDS011;59504;54.806;9.640;2023-01-16T02:03:58;6.88;;;0.70;;
71667;SDS011;59504;54.806;9.640;2023-01-16T02:06:21;6.95;;;0.60;;
71667;SDS011;59504;54.806;9.640;2023-01-16T02:08:56;3.88;;;0.52;;
71667;SDS011;59504;54.806;9.640;2023-01-16T02:11:16;4.63;;;0.35;;
71667;SDS011;59504;54.806;9.640;2023-01-16T02:13:47;5.50;;;0.57;;
71667;SDS011;59504;54.806;9.640;2023-01-16T02:16:06;8.00;;;1.05;;
71667;SDS011;59504;54.806;9.640;2023-01-16T02:18:44;7.70;;;0.57;;
71667;SDS011;59504;54.806;9.640;2023-01-16T02:24:01;16.80;;;1.60;;
71667;SDS011;59504;54.806;9.640;2023-01-16T02:26:58;12.88;;;2.05;;
71667;SDS011;59504;54.806;9.640;2023-01-16T02:29:38;9.80;;;1.60;;
71667;SDS011;59504;54.806;9.640;2023-01-16T02:34:59;14.00;;;2.30;;
71667;SDS011;59504;54.806;9.640;2023-01-16T02:37:27;17.13;;;2.90;;
71667;SDS011;59504;54.806;9.640;2023-01-16T02:47:30;16.85;;;2.50;;
71667;SDS011;59504;54.806;9.640;2023-01-16T02:52:33;9.35;;;2.00;;
71667;SDS011;59504;54.806;9.640;2023-01-16T02:55:02;20.95;;;2.42;;
71667;SDS011;59504;54.806;9.640;2023-01-16T02:57:29;14.45;;;2.45;;
71667;SDS011;59504;54.806;9.640;2023-01-16T02:59:53;17.55;;;2.83;;
71667;SDS011;59504;54.806;9.640;2023-01-16T03:02:12;10.75;;;2.13;;
71667;SDS011;59504;54.806;9.640;2023-01-16T03:10:00;15.10;;;2.42;;
71667;SDS011;59504;54.806;9.640;2023-01-16T03:12:50;14.98;;;2.05;;
71667;SDS011;59504;54.806;9.640;2023-01-16T03:15:27;23.38;;;3.38;;
71667;SDS011;59504;54.806;9.640;2023-01-16T03:20:47;12.25;;;2.17;;
71667;SDS011;59504;54.806;9.640;2023-01-16T03:23:50;12.38;;;2.40;;
71667;SDS011;59504;54.806;9.640;2023-01-16T03:26:01;19.55;;;2.97;;
71667;SDS011;59504;54.806;9.640;2023-01-16T03:33:55;20.20;;;3.17;;
71667;SDS011;59504;54.806;9.640;2023-01-16T03:38:42;13.10;;;2.33;;
71667;SDS011;59504;54.806;9.640;2023-01-16T03:41:04;12.10;;;2.10;;
71667;SDS011;59504;54.806;9.640;2023-01-16T03:43:28;19.60;;;3.13;;
71667;SDS011;59504;54.806;9.640;2023-01-16T03:45:59;12.90;;;2.53;;
71667;SDS011;59504;54.806;9.640;2023-01-16T03:48:47;10.73;;;2.28;;
71667;SDS011;59504;54.806;9.640;2023-01-16T03:51:15;10.77;;;2.17;;
71667;SDS011;59504;54.806;9.640;2023-01-16T03:53:42;9.55;;;2.75;;
71667;SDS011;59504;54.806;9.640;2023-01-16T03:56:21;13.50;;;2.60;;
71667;SDS011;59504;54.806;9.640;2023-01-16T03:58:46;10.13;;;2.42;;
71667;SDS011;59504;54.806;9.640;2023-01-16T04:03:39;13.65;;;2.10;;
71667;SDS011;59504;54.806;9.640;2023-01-16T04:06:13;8.10;;;2.15;;
71667;SDS011;59504;54.806;9.640;2023-01-16T04:09:01;8.75;;;2.20;;
71667;SDS011;59504;54.806;9.640;2023-01-16T04:11:26;8.10;;;2.45;;
71667;SDS011;59504;54.806;9.640;2023-01-16T04:13:46;9.32;;;2.45;;
71667;SDS011;59504;54.806;9.640;2023-01-16T04:16:10;10.57;;;2.72;;
71667;SDS011;59504;54.806;9.640;2023-01-16T04:18:36;8.48;;;2.88;;
71667;SDS011;59504;54.806;9.640;2023-01-16T04:20:56;11.10;;;3.45;;
71667;SDS011;59504;54.806;9.640;2023-01-16T04:23:16;13.27;;;3.35;;
71667;SDS011;59504;54.806;9.640;2023-01-16T04:25:35;11.43;;;3.35;;
71667;SDS011;59504;54.806;9.640;2023-01-16T04:27:55;11.75;;;3.47;;
71667;SDS011;59504;54.806;9.640;2023-01-16T04:30:14;9.25;;;2.92;;
71667;SDS011;59504;54.806;9.640;2023-01-16T04:32:34;13.55;;;3.42;;
71667;SDS011;59504;54.806;9.640;2023-01-16T04:34:53;11.98;;;3.70;;
71667;SDS011;59504;54.806;9.640;2023-01-16T04:37:13;10.15;;;3.65;;
71667;SDS011;59504;54.806;9.640;2023-01-16T04:39:33;11.93;;;3.13;;
71667;SDS011;59504;54.806;9.640;2023-01-16T04:41:52;7.38;;;3.08;;
71667;SDS011;59504;54.806;9.640;2023-01-16T04:44:11;10.43;;;3.20;;
71667;SDS011;59504;54.806;9.640;2023-01-16T04:46:32;9.00;;;3.85;;
71667;SDS011;59504;54.806;9.640;2023-01-16T04:48:52;15.02;;;3.83;;
71667;SDS011;59504;54.806;9.640;2023-01-16T04:51:11;14.45;;;4.22;;
71667;SDS011;59504;54.806;9.640;2023-01-16T04:53:30;8.55;;;4.07;;
71667;SDS011;59504;54.806;9.640;2023-01-16T04:55:51;11.48;;;4.25;;
71667;SDS011;59504;54.806;9.640;2023-01-16T04:58:10;8.65;;;4.22;;
71667;SDS011;59504;54.806;9.640;2023-01-16T05:00:29;14.10;;;4.60;;
71667;SDS011;59504;54.806;9.640;2023-01-16T05:02:48;13.60;;;4.35;;
71667;SDS011;59504;54.806;9.640;2023-01-16T05:05:07;14.32;;;4.65;;
71667;SDS011;59504;54.806;9.640;2023-01-16T05:07:27;10.13;;;4.25;;
71667;SDS011;59504;54.806;9.640;2023-01-16T05:09:46;8.07;;;4.38;;
71667;SDS011;59504;54.806;9.640;2023-01-16T05:12:05;11.82;;;4.55;;
71667;SDS011;59504;54.806;9.640;2023-01-16T05:14:24;11.02;;;4.50;;
71667;SDS011;59504;54.806;9.640;2023-01-16T05:16:44;9.35;;;4.45;;
71667;SDS011;59504;54.806;9.640;2023-01-16T05:19:03;13.35;;;5.53;;
71667;SDS011;59504;54.806;9.640;2023-01-16T05:21:22;9.65;;;5.13;;
71667;SDS011;59504;54.806;9.640;2023-01-16T05:23:41;7.85;;;4.63;;
71667;SDS011;59504;54.806;9.640;2023-01-16T05:26:01;12.75;;;5.00;;
71667;SDS011;59504;54.806;9.640;2023-01-16T05:28:21;15.07;;;5.63;;
71667;SDS011;59504;54.806;9.640;2023-01-16T05:30:40;12.20;;;4.88;;
71667;SDS011;59504;54.806;9.640;2023-01-16T05:32:59;10.80;;;5.25;;
71667;SDS011;59504;54.806;9.640;2023-01-16T05:35:20;15.25;;;6.20;;
71667;SDS011;59504;54.806;9.640;2023-01-16T05:37:40;12.02;;;4.93;;
71667;SDS011;59504;54.806;9.640;2023-01-16T05:40:00;25.67;;;6.40;;
71667;SDS011;59504;54.806;9.640;2023-01-16T05:42:20;10.98;;;5.15;;
71667;SDS011;59504;54.806;9.640;2023-01-16T05:44:43;10.20;;;4.77;;
71667;SDS011;59504;54.806;9.640;2023-01-16T05:47:02;9.48;;;4.53;;
71667;SDS011;59504;54.806;9.640;2023-01-16T05:49:21;11.80;;;4.07;;
71667;SDS011;59504;54.806;9.640;2023-01-16T05:51:41;10.57;;;5.13;;
71667;SDS011;59504;54.806;9.640;2023-01-16T05:54:00;9.23;;;4.20;;
71667;SDS011;59504;54.806;9.640;2023-01-16T05:56:20;11.88;;;4.28;;
71667;SDS011;59504;54.806;9.640;2023-01-16T05:58:41;15.98;;;4.72;;
71667;SDS011;59504;54.806;9.640;2023-01-16T06:01:00;12.18;;;4.32;;
71667;SDS011;59504;54.806;9.640;2023-01-16T06:03:19;13.55;;;4.10;;
71667;SDS011;59504;54.806;9.640;2023-01-16T06:05:40;14.25;;;3.78;;
71667;SDS011;59504;54.806;9.640;2023-01-16T06:07:59;9.43;;;3.67;;
71667;SDS011;59504;54.806;9.640;2023-01-16T06:10:18;13.63;;;3.75;;
71667;SDS011;59504;54.806;9.640;2023-01-16T06:12:38;8.27;;;3.30;;
71667;SDS011;59504;54.806;9.640;2023-01-16T06:14:58;8.82;;;3.17;;
71667;SDS011;59504;54.806;9.640;2023-01-16T06:17:17;8.73;;;3.40;;
71667;SDS011;59504;54.806;9.640;2023-01-16T06:19:38;13.45;;;4.03;;
71667;SDS011;59504;54.806;9.640;2023-01-16T06:21:57;7.85;;;3.42;;
71667;SDS011;59504;54.806;9.640;2023-01-16T06:24:16;7.28;;;3.25;;
71667;SDS011;59504;54.806;9.640;2023-01-16T06:26:35;8.60;;;3.97;;
71667;SDS011;59504;54.806;9.640;2023-01-16T06:28:54;8.75;;;3.45;;
71667;SDS011;59504;54.806;9.640;2023-01-16T06:31:14;10.30;;;4.03;;
71667;SDS011;59504;54.806;9.640;2023-01-16T06:33:33;11.32;;;3.75;;
71667;SDS011;59504;54.806;9.640;2023-01-16T06:35:53;10.65;;;3.47;;
71667;SDS011;59504;54.806;9.640;2023-01-16T06:38:12;12.05;;;3.90;;
71667;SDS011;59504;54.806;9.640;2023-01-16T06:40:31;10.07;;;3.97;;
71667;SDS011;59504;54.806;9.640;2023-01-16T06:42:50;8.95;;;3.72;;
71667;SDS011;59504;54.806;9.640;2023-01-16T06:45:09;10.20;;;4.60;;
71667;SDS011;59504;54.806;9.640;2023-01-16T06:47:29;9.00;;;4.45;;
71667;SDS011;59504;54.806;9.640;2023-01-16T06:49:49;14.32;;;5.22;;
71667;SDS011;59504;54.806;9.640;2023-01-16T06:52:08;15.38;;;4.97;;
71667;SDS011;59504;54.806;9.640;2023-01-16T06:54:28;16.10;;;5.55;;
71667;SDS011;59504;54.806;9.640;2023-01-16T06:56:47;12.98;;;5.13;;
71667;SDS011;59504;54.806;9.640;2023-01-16T06:59:06;15.13;;;4.70;;
71667;SDS011;59504;54.806;9.640;2023-01-16T07:01:25;13.30;;;5.00;;
71667;SDS011;59504;54.806;9.640;2023-01-16T07:03:44;9.80;;;5.57;;
71667;SDS011;59504;54.806;9.640;2023-01-16T07:06:03;8.68;;;5.00;;
71667;SDS011;59504;54.806;9.640;2023-01-16T07:08:22;10.07;;;5.20;;
71667;SDS011;59504;54.806;9.640;2023-01-16T07:10:41;23.08;;;7.70;;
71667;SDS011;59504;54.806;9.640;2023-01-16T07:13:01;20.00;;;7.05;;
71667;SDS011;59504;54.806;9.640;2023-01-16T07:15:21;21.77;;;7.28;;
71667;SDS011;59504;54.806;9.640;2023-01-16T07:18:00;13.82;;;5.68;;
71667;SDS011;59504;54.806;9.640;2023-01-16T07:20:38;8.95;;;4.30;;
71667;SDS011;59504;54.806;9.640;2023-01-16T07:23:18;11.63;;;5.45;;
71667;SDS011;59504;54.806;9.640;2023-01-16T07:25:41;9.40;;;4.70;;
71667;SDS011;59504;54.806;9.640;2023-01-16T07:28:01;10.30;;;4.35;;
71667;SDS011;59504;54.806;9.640;2023-01-16T07:30:21;11.63;;;5.05;;
71667;SDS011;59504;54.806;9.640;2023-01-16T07:32:22;12.32;;;4.90;;
71667;SDS011;59504;54.806;9.640;2023-01-16T07:34:22;11.40;;;4.82;;
71667;SDS011;59504;54.806;9.640;2023-01-16T07:36:23;10.48;;;5.22;;
71667;SDS011;59504;54.806;9.640;2023-01-16T07:38:24;10.10;;;4.80;;
71667;SDS011;59504;54.806;9.640;2023-01-16T07:40:24;8.15;;;4.80;;
71667;SDS011;59504;54.806;9.640;2023-01-16T07:42:25;9.45;;;4.32;;
71667;SDS011;59504;54.806;9.640;2023-01-16T07:44:26;14.95;;;4.47;;
71667;SDS011;59504;54.806;9.640;2023-01-16T07:46:27;11.05;;;4.95;;
71667;SDS011;59504;54.806;9.640;2023-01-16T07:48:28;13.73;;;5.28;;
71667;SDS011;59504;54.806;9.640;2023-01-16T07:50:29;13.35;;;4.47;;
71667;SDS011;59504;54.806;9.640;2023-01-16T07:52:30;10.88;;;4.38;;
71667;SDS011;59504;54.806;9.640;2023-01-16T07:54:30;12.82;;;4.25;;
71667;SDS011;59504;54.806;9.640;2023-01-16T07:56:31;12.25;;;4.80;;
71667;SDS011;59504;54.806;9.640;2023-01-16T07:58:31;10.23;;;4.57;;
71667;SDS011;59504;54.806;9.640;2023-01-16T08:00:32;11.55;;;4.47;;
71667;SDS011;59504;54.806;9.640;2023-01-16T08:02:33;13.60;;;4.68;;
71667;SDS011;59504;54.806;9.640;2023-01-16T08:04:34;12.70;;;4.70;;
71667;SDS011;59504;54.806;9.640;2023-01-16T08:06:34;14.88;;;4.63;;
71667;SDS011;59504;54.806;9.640;2023-01-16T08:08:35;12.02;;;4.35;;
71667;SDS011;59504;54.806;9.640;2023-01-16T08:10:36;11.00;;;4.43;;
71667;SDS011;59504;54.806;9.640;2023-01-16T08:12:37;8.93;;;4.30;;
71667;SDS011;59504;54.806;9.640;2023-01-16T08:14:39;11.68;;;4.45;;
71667;SDS011;59504;54.806;9.640;2023-01-16T08:16:40;10.88;;;4.15;;
71667;SDS011;59504;54.806;9.640;2023-01-16T08:18:41;12.80;;;4.25;;
71667;SDS011;59504;54.806;9.640;2023-01-16T08:20:41;9.68;;;3.75;;
71667;SDS011;59504;54.806;9.640;2023-01-16T08:22:45;8.20;;;4.10;;
71667;SDS011;59504;54.806;9.640;2023-01-16T08:24:46;10.55;;;4.15;;
71667;SDS011;59504;54.806;9.640;2023-01-16T08:26:47;8.57;;;4.22;;
71667;SDS011;59504;54.806;9.640;2023-01-16T08:28:47;12.82;;;4.05;;
71667;SDS011;59504;54.806;9.640;2023-01-16T08:30:48;6.45;;;3.55;;
71667;SDS011;59504;54.806;9.640;2023-01-16T08:32:49;9.48;;;3.38;;
71667;SDS011;59504;54.806;9.640;2023-01-16T08:34:56;9.70;;;3.63;;
71667;SDS011;59504;54.806;9.640;2023-01-16T08:36:57;6.80;;;3.25;;
71667;SDS011;59504;54.806;9.640;2023-01-16T08:38:57;12.45;;;3.50;;
71667;SDS011;59504;54.806;9.640;2023-01-16T08:40:58;7.25;;;3.28;;
71667;SDS011;59504;54.806;9.640;2023-01-16T08:42:59;8.05;;;2.97;;
71667;SDS011;59504;54.806;9.640;2023-01-16T08:45:18;8.57;;;2.88;;
71667;SDS011;59504;54.806;9.640;2023-01-16T08:47:38;8.88;;;2.90;;
71667;SDS011;59504;54.806;9.640;2023-01-16T08:49:57;5.95;;;2.60;;
71667;SDS011;59504;54.806;9.640;2023-01-16T08:52:17;11.15;;;2.83;;
71667;SDS011;59504;54.806;9.640;2023-01-16T08:54:18;4.25;;;2.13;;
71667;SDS011;59504;54.806;9.640;2023-01-16T08:56:19;8.05;;;2.38;;
71667;SDS011;59504;54.806;9.640;2023-01-16T08:58:20;5.20;;;2.55;;
71667;SDS011;59504;54.806;9.640;2023-01-16T09:00:21;8.07;;;2.30;;
71667;SDS011;59504;54.806;9.640;2023-01-16T09:02:22;5.15;;;2.33;;
71667;SDS011;59504;54.806;9.640;2023-01-16T09:04:24;4.53;;;2.15;;
71667;SDS011;59504;54.806;9.640;2023-01-16T09:06:24;8.10;;;1.77;;
71667;SDS011;59504;54.806;9.640;2023-01-16T09:08:25;8.18;;;2.03;;
71667;SDS011;59504;54.806;9.640;2023-01-16T09:10:27;6.13;;;1.98;;
71667;SDS011;59504;54.806;9.640;2023-01-16T09:12:29;8.70;;;1.98;;
71667;SDS011;59504;54.806;9.640;2023-01-16T09:14:49;7.35;;;2.20;;
71667;SDS011;59504;54.806;9.640;2023-01-16T09:16:49;6.10;;;2.10;;
71667;SDS011;59504;54.806;9.640;2023-01-16T09:18:50;4.22;;;1.60;;
71667;SDS011;59504;54.806;9.640;2023-01-16T09:20:52;3.33;;;1.52;;
71667;SDS011;59504;54.806;9.640;2023-01-16T09:22:56;5.63;;;1.75;;
71667;SDS011;59504;54.806;9.640;2023-01-16T09:24:58;10.88;;;2.03;;
71667;SDS011;59504;54.806;9.640;2023-01-16T09:26:59;6.60;;;2.00;;
71667;SDS011;59504;54.806;9.640;2023-01-16T09:29:00;12.63;;;2.40;;
71667;SDS011;59504;54.806;9.640;2023-01-16T09:31:01;5.90;;;2.30;;
71667;SDS011;59504;54.806;9.640;2023-01-16T09:33:01;8.75;;;1.95;;
71667;SDS011;59504;54.806;9.640;2023-01-16T09:35:02;7.55;;;1.58;;
71667;SDS011;59504;54.806;9.640;2023-01-16T09:37:04;7.43;;;1.58;;
71667;SDS011;59504;54.806;9.640;2023-01-16T09:39:05;7.77;;;1.67;;
71667;SDS011;59504;54.806;9.640;2023-01-16T09:41:08;9.07;;;2.15;;
71667;SDS011;59504;54.806;9.640;2023-01-16T09:43:35;5.70;;;1.58;;
71667;SDS011;59504;54.806;9.640;2023-01-16T09:45:40;6.18;;;1.85;;
71667;SDS011;59504;54.806;9.640;2023-01-16T09:49:53;8.27;;;1.52;;
71667;SDS011;59504;54.806;9.640;2023-01-16T09:52:02;6.47;;;1.50;;
71667;SDS011;59504;54.806;9.640;2023-01-16T09:54:32;8.73;;;1.65;;
71667;SDS011;59504;54.806;9.640;2023-01-16T09:56:59;5.25;;;1.30;;
71667;SDS011;59504;54.806;9.640;2023-01-16T09:59:31;5.68;;;1.33;;
71667;SDS011;59504;54.806;9.640;2023-01-16T10:01:56;3.42;;;1.20;;
71667;SDS011;59504;54.806;9.640;2023-01-16T10:11:06;7.17;;;1.67;;
71667;SDS011;59504;54.806;9.640;2023-01-16T10:16:14;6.82;;;1.73;;
71667;SDS011;59504;54.806;9.640;2023-01-16T10:23:01;9.20;;;2.05;;
71667;SDS011;59504;54.806;9.640;2023-01-16T10:25:22;8.57;;;1.80;;
71667;SDS011;59504;54.806;9.640;2023-01-16T10:31:47;8.90;;;1.70;;
71667;SDS011;59504;54.806;9.640;2023-01-16T10:35:57;5.03;;;1.40;;
71667;SDS011;59504;54.806;9.640;2023-01-16T10:38:05;6.25;;;1.42;;
71667;SDS011;59504;54.806;9.640;2023-01-16T10:40:18;7.03;;;1.30;;
71667;SDS011;59504;54.806;9.640;2023-01-16T10:42:26;5.38;;;1.65;;
71667;SDS011;59504;54.806;9.640;2023-01-16T10:44:54;5.10;;;1.45;;
71667;SDS011;59504;54.806;9.640;2023-01-16T10:47:21;6.70;;;1.70;;
71667;SDS011;59504;54.806;9.640;2023-01-16T10:49:51;6.78;;;1.48;;
71667;SDS011;59504;54.806;9.640;2023-01-16T10:51:52;6.85;;;1.67;;
71667;SDS011;59504;54.806;9.640;2023-01-16T10:53:53;4.10;;;1.20;;
71667;SDS011;59504;54.806;9.640;2023-01-16T10:55:53;7.80;;;1.60;;
71667;SDS011;59504;54.806;9.640;2023-01-16T10:57:56;4.70;;;1.50;;
71667;SDS011;59504;54.806;9.640;2023-01-16T11:00:02;5.50;;;1.40;;
71667;SDS011;59504;54.806;9.640;2023-01-16T11:02:13;5.72;;;1.60;;
71667;SDS011;59504;54.806;9.640;2023-01-16T11:04:23;6.00;;;1.15;;
71667;SDS011;59504;54.806;9.640;2023-01-16T11:06:34;8.38;;;1.50;;
71667;SDS011;59504;54.806;9.640;2023-01-16T11:08:37;5.05;;;1.45;;
71667;SDS011;59504;54.806;9.640;2023-01-16T11:10:40;5.38;;;1.42;;
71667;SDS011;59504;54.806;9.640;2023-01-16T11:12:43;7.28;;;1.15;;
71667;SDS011;59504;54.806;9.640;2023-01-16T11:15:02;2.83;;;1.08;;
71667;SDS011;59504;54.806;9.640;2023-01-16T11:17:29;6.90;;;1.35;;
71667;SDS011;59504;54.806;9.640;2023-01-16T11:19:53;5.43;;;1.67;;
71667;SDS011;59504;54.806;9.640;2023-01-16T11:21:54;7.15;;;1.58;;
71667;SDS011;59504;54.806;9.640;2023-01-16T11:24:16;4.30;;;1.00;;
71667;SDS011;59504;54.806;9.640;2023-01-16T11:26:21;7.85;;;1.67;;
71667;SDS011;59504;54.806;9.640;2023-01-16T11:30:32;3.85;;;1.48;;
71667;SDS011;59504;54.806;9.640;2023-01-16T11:32:38;7.72;;;1.35;;
71667;SDS011;59504;54.806;9.640;2023-01-16T11:34:47;6.72;;;1.60;;
71667;SDS011;59504;54.806;9.640;2023-01-16T11:36:49;4.70;;;1.20;;
71667;SDS011;59504;54.806;9.640;2023-01-16T11:38:49;4.88;;;1.25;;
71667;SDS011;59504;54.806;9.640;2023-01-16T11:40:52;4.38;;;1.00;;
71667;SDS011;59504;54.806;9.640;2023-01-16T11:43:21;3.47;;;1.10;;
71667;SDS011;59504;54.806;9.640;2023-01-16T11:46:07;4.57;;;0.93;;
71667;SDS011;59504;54.806;9.640;2023-01-16T11:48:51;4.55;;;1.30;;
71667;SDS011;59504;54.806;9.640;2023-01-16T11:51:15;3.85;;;1.00;;
71667;SDS011;59504;54.806;9.640;2023-01-16T11:53:38;2.28;;;0.95;;
71667;SDS011;59504;54.806;9.640;2023-01-16T12:01:29;3.47;;;1.10;;
71667;SDS011;59504;54.806;9.640;2023-01-16T12:04:27;3.95;;;0.90;;
71667;SDS011;59504;54.806;9.640;2023-01-16T12:09:28;6.55;;;1.30;;
71667;SDS011;59504;54.806;9.640;2023-01-16T12:14:55;4.68;;;1.10;;
71667;SDS011;59504;54.806;9.640;2023-01-16T12:20:29;5.93;;;1.00;;
71667;SDS011;59504;54.806;9.640;2023-01-16T12:36:23;4.15;;;1.05;;
71667;SDS011;59504;54.806;9.640;2023-01-16T12:41:16;7.32;;;1.35;;
71667;SDS011;59504;54.806;9.640;2023-01-16T12:46:56;5.70;;;1.00;;
71667;SDS011;59504;54.806;9.640;2023-01-16T12:55:22;3.85;;;0.70;;
71667;SDS011;59504;54.806;9.640;2023-01-16T13:00:09;3.28;;;1.02;;
71667;SDS011;59504;54.806;9.640;2023-01-16T13:02:35;6.13;;;1.00;;
71667;SDS011;59504;54.806;9.640;2023-01-16T13:05:01;5.75;;;0.90;;
71667;SDS011;59504;54.806;9.640;2023-01-16T13:07:24;6.10;;;0.98;;
71667;SDS011;59504;54.806;9.640;2023-01-16T13:09:50;7.15;;;1.40;;
71667;SDS011;59504;54.806;9.640;2023-01-16T13:12:37;2.97;;;0.68;;
71667;SDS011;59504;54.806;9.640;2023-01-16T13:15:18;3.80;;;0.93;;
71667;SDS011;59504;54.806;9.640;2023-01-16T13:20:09;3.03;;;0.85;;
71667;SDS011;59504;54.806;9.640;2023-01-16T13:22:38;1.63;;;0.77;;
71667;SDS011;59504;54.806;9.640;2023-01-16T13:27:59;7.90;;;1.27;;
71667;SDS011;59504;54.806;9.640;2023-01-16T13:30:23;11.43;;;1.15;;
71667;SDS011;59504;54.806;9.640;2023-01-16T13:35:24;2.28;;;0.68;;
71667;SDS011;59504;54.806;9.640;2023-01-16T13:37:58;5.10;;;1.17;;
71667;SDS011;59504;54.806;9.640;2023-01-16T13:43:30;2.75;;;0.90;;
71667;SDS011;59504;54.806;9.640;2023-01-16T13:46:11;3.13;;;0.75;;
71667;SDS011;59504;54.806;9.640;2023-01-16T13:48:32;6.00;;;0.90;;
71667;SDS011;59504;54.806;9.640;2023-01-16T13:50:58;4.22;;;1.00;;
71667;SDS011;59504;54.806;9.640;2023-01-16T13:53:30;4.05;;;1.35;;
71667;SDS011;59504;54.806;9.640;2023-01-16T13:55:50;6.28;;;0.90;;
71667;SDS011;59504;54.806;9.640;2023-01-16T13:58:30;3.63;;;0.70;;
71667;SDS011;59504;54.806;9.640;2023-01-16T14:01:00;5.43;;;1.33;;
71667;SDS011;59504;54.806;9.640;2023-01-16T14:03:25;6.13;;;1.00;;
71667;SDS011;59504;54.806;9.640;2023-01-16T14:08:44;4.63;;;0.85;;
71667;SDS011;59504;54.806;9.640;2023-01-16T14:11:38;3.03;;;0.93;;
71667;SDS011;59504;54.806;9.640;2023-01-16T14:17:12;1.65;;;0.70;;
71667;SDS011;59504;54.806;9.640;2023-01-16T14:19:37;4.32;;;1.10;;
71667;SDS011;59504;54.806;9.640;2023-01-16T14:22:03;7.93;;;1.15;;
71667;SDS011;59504;54.806;9.640;2023-01-16T14:24:26;4.50;;;0.95;;
71667;SDS011;59504;54.806;9.640;2023-01-16T14:29:15;6.20;;;0.98;;
71667;SDS011;59504;54.806;9.640;2023-01-16T14:32:36;2.20;;;0.90;;
71667;SDS011;59504;54.806;9.640;2023-01-16T14:34:37;7.25;;;1.02;;
71667;SDS011;59504;54.806;9.640;2023-01-16T14:37:05;4.88;;;1.05;;
71667;SDS011;59504;54.806;9.640;2023-01-16T14:39:36;5.20;;;0.93;;
71667;SDS011;59504;54.806;9.640;2023-01-16T14:42:01;5.80;;;0.82;;
71667;SDS011;59504;54.806;9.640;2023-01-16T14:44:59;3.67;;;1.00;;
71667;SDS011;59504;54.806;9.640;2023-01-16T14:47:52;8.40;;;1.38;;
71667;SDS011;59504;54.806;9.640;2023-01-16T14:50:51;4.45;;;1.00;;
71667;SDS011;59504;54.806;9.640;2023-01-16T14:53:48;3.97;;;0.95;;
71667;SDS011;59504;54.806;9.640;2023-01-16T14:56:36;4.90;;;0.93;;
71667;SDS011;59504;54.806;9.640;2023-01-16T14:58:58;4.55;;;0.95;;
71667;SDS011;59504;54.806;9.640;2023-01-16T15:01:48;7.68;;;1.30;;
71667;SDS011;59504;54.806;9.640;2023-01-16T15:07:19;6.03;;;1.00;;
71667;SDS011;59504;54.806;9.640;2023-01-16T15:09:54;4.95;;;0.88;;
71667;SDS011;59504;54.806;9.640;2023-01-16T15:12:15;2.58;;;0.85;;
71667;SDS011;59504;54.806;9.640;2023-01-16T15:14:38;2.05;;;0.88;;
71667;SDS011;59504;54.806;9.640;2023-01-16T15:17:54;2.55;;;0.70;;
71667;SDS011;59504;54.806;9.640;2023-01-16T15:20:16;5.53;;;0.90;;
71667;SDS011;59504;54.806;9.640;2023-01-16T15:23:00;4.78;;;1.02;;
71667;SDS011;59504;54.806;9.640;2023-01-16T15:27:52;3.00;;;1.00;;
71667;SDS011;59504;54.806;9.640;2023-01-16T15:30:32;1.88;;;0.80;;
71667;SDS011;59504;54.806;9.640;2023-01-16T15:32:59;6.10;;;1.20;;
71667;SDS011;59504;54.806;9.640;2023-01-16T15:35:38;5.50;;;1.17;;
71667;SDS011;59504;54.806;9.640;2023-01-16T15:37:57;5.95;;;1.23;;
71667;SDS011;59504;54.806;9.640;2023-01-16T15:40:22;5.07;;;0.90;;
71667;SDS011;59504;54.806;9.640;2023-01-16T15:42:46;3.92;;;0.90;;
71667;SDS011;59504;54.806;9.640;2023-01-16T15:45:26;2.97;;;0.85;;
71667;SDS011;59504;54.806;9.640;2023-01-16T15:53:14;3.30;;;1.10;;
71667;SDS011;59504;54.806;9.640;2023-01-16T15:55:36;4.47;;;1.08;;
71667;SDS011;59504;54.806;9.640;2023-01-16T15:57:58;7.07;;;1.33;;
71667;SDS011;59504;54.806;9.640;2023-01-16T16:02:56;2.78;;;1.10;;
71667;SDS011;59504;54.806;9.640;2023-01-16T16:05:17;4.35;;;1.25;;
71667;SDS011;59504;54.806;9.640;2023-01-16T16:07:40;6.35;;;1.23;;
71667;SDS011;59504;54.806;9.640;2023-01-16T16:09:59;3.38;;;0.90;;
71667;SDS011;59504;54.806;9.640;2023-01-16T16:12:20;3.63;;;1.00;;
71667;SDS011;59504;54.806;9.640;2023-01-16T16:14:40;5.15;;;1.00;;